createdAt,value
2018-08-11T00:00:28.371Z,87.60
2018-08-11T00:02:56.931Z,90.10
2018-08-11T00:05:25.822Z,91.00
2018-08-11T00:07:54.706Z,91.60
2018-08-11T00:10:23.219Z,92.20
2018-08-11T00:12:51.727Z,92.50
2018-08-11T00:15:21.173Z,92.90
2018-08-11T00:17:49.762Z,93.30
2018-08-11T00:20:27.176Z,93.70
2018-08-11T00:22:55.768Z,94.00
2018-08-11T00:25:24.378Z,94.50
2018-08-11T00:27:52.907Z,95.10
2018-08-11T00:30:21.997Z,95.30
2018-08-11T00:32:50.884Z,96.00
2018-08-11T00:35:19.490Z,96.30
2018-08-11T00:37:48.075Z,96.40
2018-08-11T00:40:19.744Z,96.10
2018-08-11T00:42:49.330Z,96.00
2018-08-11T00:45:18.336Z,96.20
2018-08-11T00:47:46.907Z,96.70
2018-08-11T00:50:29.895Z,97.00
2018-08-11T00:52:58.408Z,97.00
2018-08-11T00:55:26.994Z,97.20
2018-08-11T00:57:55.520Z,96.90
2018-08-11T01:00:24.752Z,97.00
2018-08-11T01:02:53.547Z,97.20
2018-08-11T01:05:22.397Z,97.40
2018-08-11T01:07:51.617Z,97.60
2018-08-11T01:10:20.423Z,97.50
2018-08-11T01:12:49.293Z,97.00
2018-08-11T01:15:22.701Z,96.90
2018-08-11T01:17:51.689Z,97.10
2018-08-11T01:20:20.329Z,97.40
2018-08-11T01:22:49.437Z,97.60
2018-08-11T01:25:18.319Z,97.40
2018-08-11T01:27:53.192Z,97.40
2018-08-11T01:30:22.692Z,97.40
2018-08-11T01:32:51.203Z,97.80
2018-08-11T01:35:19.770Z,97.70
2018-08-11T01:37:48.304Z,98.00
2018-08-11T01:40:17.825Z,97.50
2018-08-11T01:42:47.524Z,97.40
2018-08-11T01:45:16.528Z,97.60
2018-08-11T01:47:45.193Z,97.70
2018-08-11T01:50:14.931Z,98.10
2018-08-11T01:52:45.019Z,98.50
2018-08-11T01:55:15.186Z,98.80
2018-08-11T01:57:43.791Z,98.60
2018-08-11T02:00:13.858Z,98.50
2018-08-11T02:02:42.866Z,98.70
2018-08-11T02:05:12.238Z,99.00
2018-08-11T02:07:41.828Z,99.20
2018-08-11T02:10:12.045Z,99.20
2018-08-11T02:12:40.523Z,99.40
2018-08-11T02:15:11.371Z,99.60
2018-08-11T02:17:39.883Z,99.80
2018-08-11T02:20:11.235Z,99.90
2018-08-11T02:22:39.723Z,99.90
2018-08-11T02:25:12.103Z,99.90
2018-08-11T02:27:40.735Z,99.90
2018-08-11T02:30:12.630Z,99.90
2018-08-11T02:32:41.246Z,99.70
2018-08-11T02:35:10.991Z,99.80
2018-08-11T02:37:39.835Z,99.90
2018-08-11T02:40:10.271Z,99.70
2018-08-11T02:42:38.821Z,99.50
2018-08-11T02:45:08.729Z,99.60
2018-08-11T02:47:37.188Z,99.90
2018-08-11T02:50:07.272Z,99.90
2018-08-11T02:52:35.649Z,99.90
2018-08-11T02:55:04.322Z,99.90
2018-08-11T02:57:32.787Z,99.90
2018-08-11T03:00:01.281Z,99.90
2018-08-11T03:02:29.822Z,99.90
2018-08-11T03:04:58.231Z,99.90
2018-08-11T03:07:26.690Z,99.90
2018-08-11T03:09:55.145Z,99.90
2018-08-11T03:12:23.598Z,99.90
2018-08-11T03:14:52.110Z,99.90
2018-08-11T03:17:20.571Z,99.90
2018-08-11T03:19:49.058Z,99.90
2018-08-11T03:22:17.532Z,99.90
2018-08-11T03:24:46.615Z,99.90
2018-08-11T03:27:15.067Z,99.90
2018-08-11T03:29:43.519Z,99.90
2018-08-11T03:32:11.949Z,99.90
2018-08-11T03:34:40.418Z,99.90
2018-08-11T03:37:08.872Z,99.90
2018-08-11T03:39:37.315Z,99.90
2018-08-11T03:42:05.904Z,99.90
2018-08-11T03:44:34.339Z,99.90
2018-08-11T03:47:02.814Z,99.90
2018-08-11T03:49:31.261Z,99.90
2018-08-11T03:51:59.723Z,99.90
2018-08-11T03:54:28.873Z,99.90
2018-08-11T03:56:57.380Z,99.90
2018-08-11T03:59:25.851Z,99.90
2018-08-11T04:01:54.647Z,99.90
2018-08-11T04:04:23.122Z,99.90
2018-08-11T04:06:51.607Z,99.90
2018-08-11T04:09:20.107Z,99.90
2018-08-11T04:11:48.646Z,99.90
2018-08-11T04:14:17.102Z,99.90
2018-08-11T04:16:45.643Z,99.90
2018-08-11T04:19:14.118Z,99.90
2018-08-11T04:21:42.590Z,99.90
2018-08-11T04:24:11.273Z,99.90
2018-08-11T04:26:39.987Z,99.90
2018-08-11T04:29:09.061Z,99.50
2018-08-11T04:31:37.863Z,99.10
2018-08-11T04:34:06.451Z,98.80
2018-08-11T04:36:35.033Z,98.60
2018-08-11T04:39:03.657Z,98.50
2018-08-11T04:41:32.519Z,98.40
2018-08-11T04:44:00.964Z,98.20
2018-08-11T04:46:29.498Z,98.10
2018-08-11T04:48:57.970Z,98.40
2018-08-11T04:51:26.487Z,98.10
2018-08-11T04:53:54.990Z,98.10
2018-08-11T04:56:23.492Z,98.00
2018-08-11T04:58:52.119Z,98.10
2018-08-11T05:01:20.853Z,97.90
2018-08-11T05:03:49.951Z,97.70
2018-08-11T05:06:18.428Z,97.50
2018-08-11T05:08:46.865Z,97.40
2018-08-11T05:11:15.354Z,97.20
2018-08-11T05:13:43.874Z,97.10
2018-08-11T05:16:12.647Z,97.20
2018-08-11T05:18:41.075Z,97.00
2018-08-11T05:21:09.882Z,97.00
2018-08-11T05:23:38.698Z,96.90
2018-08-11T05:26:07.178Z,96.60
2018-08-11T05:28:35.634Z,96.40
2018-08-11T05:31:04.128Z,96.40
2018-08-11T05:33:32.674Z,96.20
2018-08-11T05:36:01.129Z,96.20
2018-08-11T05:38:29.582Z,96.10
2018-08-11T05:40:58.418Z,96.00
2018-08-11T05:43:27.146Z,96.10
2018-08-11T05:45:55.614Z,95.70
2018-08-11T05:48:24.131Z,95.60
2018-08-11T05:50:52.606Z,95.50
2018-08-11T05:53:21.039Z,95.40
2018-08-11T05:55:49.562Z,95.30
2018-08-11T05:58:18.040Z,95.40
2018-08-11T06:00:46.513Z,95.10
2018-08-11T06:03:15.026Z,95.20
2018-08-11T06:05:43.494Z,95.00
2018-08-11T06:08:11.985Z,95.10
2018-08-11T06:10:40.511Z,94.90
2018-08-11T06:13:09.027Z,94.60
2018-08-11T06:15:37.513Z,94.40
2018-08-11T06:18:06.465Z,94.70
2018-08-11T06:20:34.943Z,94.30
2018-08-11T06:23:03.444Z,94.00
2018-08-11T06:25:31.935Z,93.90
2018-08-11T06:28:00.446Z,93.70
2018-08-11T06:30:28.909Z,94.00
2018-08-11T06:32:57.524Z,93.20
2018-08-11T06:35:25.983Z,93.40
2018-08-11T06:37:55.138Z,93.10
2018-08-11T06:40:23.660Z,93.20
2018-08-11T06:42:52.731Z,93.20
2018-08-11T06:45:21.947Z,92.80
2018-08-11T06:47:51.335Z,92.90
2018-08-11T06:50:19.924Z,93.40
2018-08-11T06:52:48.419Z,95.10
2018-08-11T06:55:17.273Z,97.90
2018-08-11T06:57:46.111Z,99.50
2018-08-11T07:00:14.930Z,99.80
2018-08-11T07:02:43.958Z,99.90
2018-08-11T07:05:12.662Z,99.90
2018-08-11T07:07:41.165Z,99.80
2018-08-11T07:10:09.970Z,99.60
2018-08-11T07:12:38.457Z,99.90
2018-08-11T07:15:07.431Z,99.90
2018-08-11T07:17:36.171Z,99.90
2018-08-11T07:20:05.298Z,98.50
2018-08-11T07:22:34.471Z,98.60
2018-08-11T07:25:02.942Z,98.30
2018-08-11T07:27:31.729Z,98.00
2018-08-11T07:30:00.199Z,97.80
2018-08-11T07:32:28.946Z,97.10
2018-08-11T07:34:57.688Z,97.20
2018-08-11T07:37:26.422Z,97.00
2018-08-11T07:39:54.898Z,96.80
2018-08-11T07:42:23.432Z,95.60
2018-08-11T07:44:52.234Z,95.40
2018-08-11T07:47:20.718Z,94.90
2018-08-11T07:49:49.232Z,95.10
2018-08-11T07:52:17.990Z,95.40
2018-08-11T07:54:46.482Z,94.50
2018-08-11T07:57:14.966Z,93.60
2018-08-11T07:59:43.408Z,93.80
2018-08-11T08:02:11.874Z,94.20
2018-08-11T08:04:40.294Z,93.50
2018-08-11T08:07:08.812Z,93.30
2018-08-11T08:09:37.301Z,92.50
2018-08-11T08:12:05.879Z,91.40
2018-08-11T08:14:34.311Z,92.60
2018-08-11T08:17:02.755Z,91.80
2018-08-11T08:19:31.590Z,92.40
2018-08-11T08:22:00.106Z,92.10
2018-08-11T08:24:28.815Z,91.90
2018-08-11T08:26:57.378Z,91.80
2018-08-11T08:29:25.833Z,91.60
2018-08-11T08:31:54.280Z,90.60
2018-08-11T08:34:22.790Z,91.00
2018-08-11T08:36:51.263Z,91.40
2018-08-11T08:39:19.746Z,90.30
2018-08-11T08:41:48.244Z,90.00
2018-08-11T08:44:16.654Z,88.30
2018-08-11T08:46:45.161Z,90.40
2018-08-11T08:49:13.598Z,88.20
2018-08-11T08:51:42.050Z,86.90
2018-08-11T08:54:10.567Z,87.90
2018-08-11T08:56:39.034Z,90.50
2018-08-11T08:59:07.841Z,83.80
2018-08-11T09:01:36.317Z,85.00
2018-08-11T09:04:05.133Z,83.40
2018-08-11T09:06:33.978Z,81.00
2018-08-11T09:09:02.566Z,79.70
2018-08-11T09:11:31.045Z,80.70
2018-08-11T09:13:59.544Z,84.40
2018-08-11T09:16:28.030Z,80.80
2018-08-11T09:18:56.595Z,80.00
2018-08-11T09:21:25.057Z,78.90
2018-08-11T09:23:53.805Z,74.30
2018-08-11T09:26:22.262Z,76.50
2018-08-11T09:28:50.763Z,77.30
2018-08-11T09:31:19.214Z,75.70
2018-08-11T09:33:47.689Z,76.80
2018-08-11T09:36:16.435Z,72.70
2018-08-11T09:38:44.931Z,71.40
2018-08-11T09:41:24.663Z,73.10
2018-08-11T09:43:53.610Z,75.00
2018-08-11T09:46:22.394Z,70.10
2018-08-11T09:48:50.941Z,70.50
2018-08-11T09:51:19.422Z,66.30
2018-08-11T09:53:47.930Z,67.00
2018-08-11T09:56:16.374Z,66.80
2018-08-11T09:58:44.843Z,67.60
2018-08-11T10:01:18.715Z,66.30
2018-08-11T10:03:47.479Z,66.00
2018-08-11T10:06:16.202Z,67.60
2018-08-11T10:08:44.906Z,64.80
2018-08-11T10:11:13.378Z,66.50
2018-08-11T10:13:41.864Z,65.00
2018-08-11T10:16:10.352Z,62.40
2018-08-11T10:18:38.920Z,61.80
2018-08-11T10:21:07.893Z,61.50
2018-08-11T10:23:36.467Z,62.40
2018-08-11T10:26:05.219Z,63.10
2018-08-11T10:28:33.730Z,61.80
2018-08-11T10:31:02.588Z,62.20
2018-08-11T10:33:31.118Z,62.60
2018-08-11T10:35:59.600Z,65.50
2018-08-11T10:38:28.082Z,62.10
2018-08-11T10:40:56.631Z,61.50
2018-08-11T10:43:25.143Z,60.60
2018-08-11T10:45:53.591Z,60.90
2018-08-11T10:48:22.053Z,60.20
2018-08-11T10:50:50.482Z,58.20
2018-08-11T10:53:19.200Z,58.40
2018-08-11T10:55:47.770Z,58.00
2018-08-11T10:58:16.591Z,60.30
2018-08-11T11:00:45.098Z,62.10
2018-08-11T11:03:13.589Z,60.60
2018-08-11T11:05:42.059Z,59.90
2018-08-11T11:08:10.563Z,60.80
2018-08-11T11:10:39.042Z,60.40
2018-08-11T11:13:07.878Z,59.30
2018-08-11T11:15:36.379Z,59.30
2018-08-11T11:18:05.320Z,60.00
2018-08-11T11:20:33.807Z,60.30
2018-08-11T11:23:02.278Z,60.70
2018-08-11T11:25:30.758Z,62.70
2018-08-11T11:27:59.643Z,63.80
2018-08-11T11:30:28.134Z,62.50
2018-08-11T11:32:56.927Z,63.20
2018-08-11T11:35:25.726Z,63.60
2018-08-11T11:37:54.203Z,62.60
2018-08-11T11:40:29.506Z,61.40
2018-08-11T11:42:58.013Z,61.10
2018-08-11T11:45:26.567Z,59.30
2018-08-11T11:47:55.514Z,61.20
2018-08-11T11:50:24.045Z,59.30
2018-08-11T11:52:52.738Z,59.80
2018-08-11T11:55:21.266Z,57.70
2018-08-11T11:57:49.760Z,57.30
2018-08-11T12:00:18.622Z,57.00
2018-08-11T12:02:47.144Z,56.00
2018-08-11T12:05:15.706Z,57.40
2018-08-11T12:07:44.174Z,59.50
2018-08-11T12:10:12.779Z,57.60
2018-08-11T12:12:41.246Z,57.40
2018-08-11T12:15:10.218Z,56.80
2018-08-11T12:17:38.703Z,55.60
2018-08-11T12:20:07.213Z,57.00
2018-08-11T12:22:35.691Z,56.60
2018-08-11T12:25:04.358Z,56.10
2018-08-11T12:27:32.836Z,55.70
2018-08-11T12:30:01.589Z,55.50
2018-08-11T12:32:30.360Z,57.20
2018-08-11T12:34:58.838Z,57.10
2018-08-11T12:37:27.583Z,55.20
2018-08-11T12:39:56.086Z,55.20
2018-08-11T12:42:24.560Z,54.70
2018-08-11T12:44:53.328Z,56.30
2018-08-11T12:47:22.161Z,56.40
2018-08-11T12:49:50.959Z,53.20
2018-08-11T12:52:19.442Z,55.10
2018-08-11T12:54:47.970Z,53.60
2018-08-11T12:57:16.502Z,53.70
2018-08-11T12:59:45.065Z,52.90
2018-08-11T13:02:13.562Z,53.40
2018-08-11T13:04:42.112Z,49.90
2018-08-11T13:07:10.911Z,50.20
2018-08-11T13:09:39.818Z,49.30
2018-08-11T13:12:08.583Z,50.80
2018-08-11T13:14:37.115Z,51.20
2018-08-11T13:17:05.901Z,51.80
2018-08-11T13:19:34.392Z,50.90
2018-08-11T13:22:03.211Z,50.00
2018-08-11T13:24:32.145Z,50.40
2018-08-11T13:27:00.651Z,50.20
2018-08-11T13:29:29.485Z,48.60
2018-08-11T13:31:58.342Z,49.80
2018-08-11T13:34:26.817Z,50.40
2018-08-11T13:36:55.290Z,51.30
2018-08-11T13:39:23.823Z,50.60
2018-08-11T13:41:52.306Z,51.90
2018-08-11T13:44:20.782Z,50.60
2018-08-11T13:46:49.286Z,50.10
2018-08-11T13:49:17.762Z,50.80
2018-08-11T13:51:46.291Z,49.80
2018-08-11T13:54:14.802Z,49.90
2018-08-11T13:56:43.270Z,49.80
2018-08-11T13:59:11.746Z,50.10
2018-08-11T14:01:40.269Z,49.70
2018-08-11T14:04:09.084Z,49.60
2018-08-11T14:06:37.846Z,48.20
2018-08-11T14:09:07.751Z,49.70
2018-08-11T14:11:36.286Z,49.90
2018-08-11T14:14:04.843Z,49.40
2018-08-11T14:16:33.327Z,49.00
2018-08-11T14:19:01.864Z,50.20
2018-08-11T14:21:36.688Z,48.40
2018-08-11T14:24:05.213Z,47.60
2018-08-11T14:26:33.658Z,47.30
2018-08-11T14:29:02.442Z,47.60
2018-08-11T14:31:30.930Z,48.80
2018-08-11T14:33:59.542Z,49.20
2018-08-11T14:36:28.317Z,49.70
2018-08-11T14:38:56.810Z,50.30
2018-08-11T14:41:25.334Z,47.90
2018-08-11T14:43:53.807Z,48.50
2018-08-11T14:46:22.599Z,48.10
2018-08-11T14:48:51.278Z,48.20
2018-08-11T14:51:20.066Z,46.50
2018-08-11T14:53:48.548Z,46.40
2018-08-11T14:56:17.096Z,47.80
2018-08-11T14:58:45.543Z,47.80
2018-08-11T15:01:14.018Z,49.20
2018-08-11T15:03:42.471Z,47.30
2018-08-11T15:06:10.947Z,47.60
2018-08-11T15:08:39.388Z,47.30
2018-08-11T15:11:08.203Z,48.40
2018-08-11T15:13:37.075Z,47.80
2018-08-11T15:16:05.580Z,46.70
2018-08-11T15:18:34.063Z,47.30
2018-08-11T15:21:02.525Z,47.50
2018-08-11T15:23:30.982Z,46.80
2018-08-11T15:25:59.443Z,46.70
2018-08-11T15:28:28.210Z,46.40
2018-08-11T15:30:57.083Z,46.10
2018-08-11T15:33:25.598Z,46.20
2018-08-11T15:35:54.114Z,47.40
2018-08-11T15:38:22.581Z,47.90
2018-08-11T15:40:51.274Z,48.50
2018-08-11T15:43:19.727Z,47.60
2018-08-11T15:45:48.298Z,47.50
2018-08-11T15:48:16.779Z,46.70
2018-08-11T15:50:45.314Z,46.90
2018-08-11T15:53:13.931Z,48.00
2018-08-11T15:55:42.473Z,45.00
2018-08-11T15:58:10.984Z,44.30
2018-08-11T16:00:39.731Z,44.60
2018-08-11T16:03:08.210Z,43.40
2018-08-11T16:05:37.102Z,43.70
2018-08-11T16:08:06.344Z,42.50
2018-08-11T16:10:34.889Z,43.20
2018-08-11T16:13:03.380Z,43.80
2018-08-11T16:15:31.878Z,44.90
2018-08-11T16:18:00.347Z,45.70
2018-08-11T16:20:28.912Z,45.60
2018-08-11T16:22:57.414Z,47.10
2018-08-11T16:25:25.891Z,47.40
2018-08-11T16:27:54.374Z,47.50
2018-08-11T16:30:22.859Z,46.90
2018-08-11T16:32:51.403Z,46.90
2018-08-11T16:35:19.890Z,47.80
2018-08-11T16:37:49.669Z,47.90
2018-08-11T16:40:18.194Z,46.90
2018-08-11T16:42:46.663Z,47.10
2018-08-11T16:45:15.167Z,47.80
2018-08-11T16:47:43.826Z,47.70
2018-08-11T16:50:12.279Z,47.30
2018-08-11T16:52:40.827Z,47.60
2018-08-11T16:55:09.400Z,47.90
2018-08-11T16:57:37.980Z,48.40
2018-08-11T17:00:09.198Z,47.60
2018-08-11T17:02:37.728Z,47.30
2018-08-11T17:05:06.605Z,47.90
2018-08-11T17:07:35.499Z,47.20
2018-08-11T17:10:04.654Z,48.30
2018-08-11T17:12:33.098Z,47.50
2018-08-11T17:15:01.849Z,47.00
2018-08-11T17:17:30.290Z,48.60
2018-08-11T17:19:59.034Z,47.80
2018-08-11T17:22:27.794Z,50.70
2018-08-11T17:24:56.220Z,47.30
2018-08-11T17:27:24.700Z,47.50
2018-08-11T17:29:53.454Z,48.50
2018-08-11T17:32:22.292Z,49.30
2018-08-11T17:34:50.753Z,49.20
2018-08-11T17:37:19.464Z,48.30
2018-08-11T17:39:47.913Z,48.50
2018-08-11T17:42:16.376Z,48.50
2018-08-11T17:44:45.060Z,49.30
2018-08-11T17:47:13.535Z,48.90
2018-08-11T17:49:42.290Z,49.20
2018-08-11T17:52:10.758Z,49.20
2018-08-11T17:54:39.555Z,49.40
2018-08-11T17:57:08.310Z,50.00
2018-08-11T17:59:36.747Z,49.90
2018-08-11T18:02:05.342Z,50.00
2018-08-11T18:04:33.787Z,51.20
2018-08-11T18:07:02.288Z,50.50
2018-08-11T18:09:30.966Z,50.10
2018-08-11T18:11:59.390Z,50.40
2018-08-11T18:14:27.882Z,50.50
2018-08-11T18:16:56.321Z,50.90
2018-08-11T18:19:24.814Z,51.20
2018-08-11T18:21:53.239Z,51.30
2018-08-11T18:24:21.694Z,51.80
2018-08-11T18:26:50.150Z,51.20
2018-08-11T18:29:18.627Z,51.10
2018-08-11T18:31:47.067Z,53.00
2018-08-11T18:34:15.523Z,51.60
2018-08-11T18:36:43.955Z,52.20
2018-08-11T18:39:13.614Z,52.50
2018-08-11T18:41:43.173Z,52.30
2018-08-11T18:44:11.886Z,52.40
2018-08-11T18:46:40.313Z,52.10
2018-08-11T18:49:08.774Z,53.00
2018-08-11T18:51:37.554Z,52.80
2018-08-11T18:54:06.287Z,53.00
2018-08-11T18:56:34.783Z,53.40
2018-08-11T18:59:03.540Z,53.50
2018-08-11T19:01:32.274Z,53.80
2018-08-11T19:04:00.806Z,53.90
2018-08-11T19:06:29.357Z,53.70
2018-08-11T19:08:57.865Z,54.20
2018-08-11T19:11:26.385Z,54.30
2018-08-11T19:13:54.914Z,54.80
2018-08-11T19:16:23.382Z,55.20
2018-08-11T19:18:51.864Z,55.50
2018-08-11T19:21:20.440Z,56.60
2018-08-11T19:23:48.934Z,56.60
2018-08-11T19:26:17.695Z,57.10
2018-08-11T19:28:46.465Z,57.60
2018-08-11T19:31:15.539Z,57.10
2018-08-11T19:33:44.315Z,57.40
2018-08-11T19:36:12.830Z,58.40
2018-08-11T19:38:41.625Z,58.60
2018-08-11T19:41:10.243Z,57.90
2018-08-11T19:43:39.073Z,58.20
2018-08-11T19:46:08.250Z,58.70
2018-08-11T19:48:36.750Z,59.50
2018-08-11T19:51:05.366Z,60.30
2018-08-11T19:53:33.840Z,60.60
2018-08-11T19:56:02.727Z,60.90
2018-08-11T19:58:31.462Z,61.10
2018-08-11T20:00:59.979Z,61.30
2018-08-11T20:03:28.434Z,61.10
2018-08-11T20:05:57.272Z,61.10
2018-08-11T20:08:26.403Z,61.60
2018-08-11T20:10:58.621Z,61.90
2018-08-11T20:13:27.114Z,61.90
2018-08-11T20:15:55.654Z,61.80
2018-08-11T20:18:24.544Z,61.50
2018-08-11T20:20:53.093Z,62.00
2018-08-11T20:23:21.611Z,62.10
2018-08-11T20:25:50.146Z,62.50
2018-08-11T20:28:18.648Z,62.60
2018-08-11T20:30:47.379Z,63.10
2018-08-11T20:33:15.857Z,62.90
2018-08-11T20:35:44.706Z,62.60
2018-08-11T20:38:13.226Z,63.30
2018-08-11T20:40:41.774Z,63.40
2018-08-11T20:43:10.336Z,64.90
2018-08-11T20:45:39.515Z,64.40
2018-08-11T20:48:08.347Z,64.80
2018-08-11T20:50:37.227Z,64.90
2018-08-11T20:53:05.787Z,63.70
2018-08-11T20:55:34.331Z,64.00
2018-08-11T20:58:02.987Z,64.00
2018-08-11T21:00:31.555Z,63.60
2018-08-11T21:03:00.343Z,64.10
2018-08-11T21:05:29.085Z,63.90
2018-08-11T21:07:57.663Z,65.10
2018-08-11T21:10:26.204Z,65.20
2018-08-11T21:12:54.759Z,66.20
2018-08-11T21:15:23.567Z,66.40
2018-08-11T21:17:52.368Z,66.10
2018-08-11T21:20:21.350Z,66.30
2018-08-11T21:22:50.182Z,66.30
2018-08-11T21:25:19.142Z,66.40
2018-08-11T21:27:47.625Z,66.20
2018-08-11T21:30:16.430Z,67.20
2018-08-11T21:32:44.966Z,67.50
2018-08-11T21:35:13.488Z,68.00
2018-08-11T21:37:42.507Z,68.00
2018-08-11T21:40:12.964Z,68.00
2018-08-11T21:42:42.195Z,68.40
2018-08-11T21:45:11.055Z,68.20
2018-08-11T21:47:40.371Z,67.60
2018-08-11T21:50:09.690Z,67.20
2018-08-11T21:52:38.891Z,67.00
2018-08-11T21:55:08.060Z,67.90
2018-08-11T21:57:37.365Z,68.30
2018-08-11T22:00:38.274Z,68.40
2018-08-11T22:03:08.167Z,69.10
2018-08-11T22:05:37.109Z,69.90
2018-08-11T22:08:05.690Z,69.50
2018-08-11T22:10:34.222Z,69.90
2018-08-11T22:13:02.749Z,68.90
2018-08-11T22:15:31.312Z,69.80
2018-08-11T22:17:59.904Z,70.50
2018-08-11T22:20:28.811Z,70.50
2018-08-11T22:22:57.355Z,70.60
2018-08-11T22:25:25.842Z,71.00
2018-08-11T22:27:54.623Z,71.70
2018-08-11T22:30:23.167Z,71.50
2018-08-11T22:32:52.050Z,72.00
2018-08-11T22:35:20.598Z,72.80
2018-08-11T22:37:49.116Z,72.40
2018-08-11T22:40:17.580Z,72.60
2018-08-11T22:42:46.067Z,73.20
2018-08-11T22:45:14.819Z,73.50
2018-08-11T22:47:43.302Z,73.80
2018-08-11T22:50:13.681Z,73.90
2018-08-11T22:52:42.448Z,74.00
2018-08-11T22:55:11.014Z,73.90
2018-08-11T22:57:39.511Z,74.10
2018-08-11T23:00:18.142Z,74.80
2018-08-11T23:02:46.710Z,74.70
2018-08-11T23:05:16.631Z,74.80
2018-08-11T23:07:45.131Z,75.20
2018-08-11T23:10:15.326Z,75.50
2018-08-11T23:12:44.879Z,76.10
2018-08-11T23:15:16.170Z,76.10
2018-08-11T23:17:45.927Z,76.10
2018-08-11T23:20:15.090Z,76.30
2018-08-11T23:22:43.907Z,76.20
2018-08-11T23:25:12.962Z,76.70
2018-08-11T23:27:41.514Z,77.50
2018-08-11T23:30:12.787Z,78.20
2018-08-11T23:32:42.104Z,78.40
2018-08-11T23:35:11.266Z,79.10
2018-08-11T23:37:40.511Z,79.60
2018-08-11T23:40:09.766Z,79.70
2018-08-11T23:42:43.626Z,80.10
2018-08-11T23:45:15.475Z,79.50
2018-08-11T23:47:44.318Z,79.20
2018-08-11T23:50:13.934Z,80.00
2018-08-11T23:52:43.687Z,80.00
2018-08-11T23:55:13.584Z,80.70
2018-08-11T23:57:42.227Z,80.70
